Lehmann Sound — V2EM3 — position and weather

sailwx.info

Track history (hours):
 
Tides and Currents Weather Stations Pressure Air Temp Water Temp Dewpoint Dewpoint Depression Visibility Wind Speed Wind Dir Waves Ship Positions

Lehmann Sound

Last reported at 2016-Nov-24 02:24 UTC. Time now 2016-Dec-04 06:13 UTC.
Position N 28°44' W 015°41'.
Warning: this ship's position is 10 days out of date.

Length 90 m; draft 5.7 m.

Type: Cargo ship. MMSI: 305476000.

Date/timePositionNaut miles runAvg speedWind from/ knotsBaromVisibWave heightAir tempDewpointWater temp
2016-Nov-24 02:24N 28°44' W 015°41'9 7.9
2016-Nov-24 01:15N 28°39' W 015°50'6 7.9
2016-Nov-24 00:28N 28°36' W 015°56'18 1.5
2016-Nov-23 12:30N 28°28' W 016°15'0 0.0
2016-Nov-23 11:27N 28°28' W 016°15'0 0.0
2016-Nov-23 10:30N 28°28' W 016°15'0 0.0
2016-Nov-23 08:30N 28°28' W 016°15'0 0.0
2016-Nov-23 00:17N 28°28' W 016°15'0 0.0
2016-Nov-22 17:05N 28°28' W 016°15'0 0.0
2016-Nov-22 15:08N 28°28' W 016°15'0 0.0
2016-Nov-22 13:29N 28°28' W 016°15'0 0.0
2016-Nov-22 10:26N 28°28' W 016°15'0 0.0
2016-Nov-22 09:29N 28°28' W 016°15'0 0.0
2016-Nov-22 07:33N 28°28' W 016°15'8 4.1
2016-Nov-22 05:33N 28°26' W 016°06'8 8.3
2016-Nov-22 04:33N 28°23' W 015°57'8 8.4
2016-Nov-22 03:33N 28°19' W 015°49'9 8.8
2016-Nov-22 02:33N 28°16' W 015°39'15 4.9
2016-Nov-21 23:33N 28°09' W 015°25'0 0.0
2016-Nov-21 21:33N 28°09' W 015°25'0 0.0
2016-Nov-21 17:33N 28°09' W 015°25'0 0.0
2016-Nov-21 14:30N 28°09' W 015°25'0 0.0
2016-Nov-21 13:33N 28°09' W 015°25'0 0.0
2016-Nov-21 12:33N 28°09' W 015°25'0 0.0
2016-Nov-21 11:33N 28°09' W 015°25'0 0.0
2016-Nov-21 10:33N 28°09' W 015°25'0 0.0
2016-Nov-21 08:33N 28°09' W 015°25'0 0.0
2016-Nov-21 07:33N 28°09' W 015°25'0 0.0
2016-Nov-21 05:33N 28°09' W 015°25'0 0.0
2016-Nov-21 04:33N 28°09' W 015°25'0 0.0
2016-Nov-21 02:33N 28°09' W 015°25'0 0.0
2016-Nov-21 00:33N 28°09' W 015°25'0 0.0
2016-Nov-20 22:33N 28°09' W 015°25'0 0.0
2016-Nov-20 21:33N 28°09' W 015°25'0 0.0
2016-Nov-20 17:33N 28°09' W 015°25'0 0.0
2016-Nov-20 16:33N 28°09' W 015°25'2 1.1
2016-Nov-20 14:31N 28°06' W 015°24'0 0.0
2016-Nov-20 13:31N 28°06' W 015°24'0 0.0
2016-Nov-20 12:31N 28°06' W 015°24'0 0.0
2016-Nov-20 09:31N 28°06' W 015°24'0 0.0
2016-Nov-20 08:31N 28°06' W 015°24'0 0.0
2016-Nov-20 07:31N 28°06' W 015°24'0 0.0
2016-Nov-20 06:31N 28°06' W 015°24'0 0.0
2016-Nov-20 05:31N 28°06' W 015°24'0 0.0
2016-Nov-20 04:31N 28°06' W 015°24'0 0.0
2016-Nov-20 03:31N 28°06' W 015°24'0 0.0
2016-Nov-20 01:31N 28°06' W 015°24'0 0.0
2016-Nov-19 23:31N 28°06' W 015°24'0 0.0
2016-Nov-19 22:31N 28°06' W 015°24'0 0.0
2016-Nov-19 20:31N 28°06' W 015°24'0 0.0
2016-Nov-19 19:31N 28°06' W 015°24'0 0.0
2016-Nov-19 17:31N 28°06' W 015°24'0 0.0
2016-Nov-19 16:31N 28°06' W 015°24'8 3.9
2016-Nov-19 14:33N 28°08' W 015°16'  
2016-Nov-17 08:23N 35°47' W 011°50'16 8.8
2016-Nov-17 06:33N 36°03' W 011°48'36 8.7
2016-Nov-17 02:22N 36°39' W 011°41'27 9.3
2016-Nov-16 23:29N 37°05' W 011°34'9 9.4
2016-Nov-16 22:34N 37°14' W 011°33'30 9.1
2016-Nov-16 19:12N 37°44' W 011°28'15 8.9
2016-Nov-16 17:30N 37°59' W 011°25'8 8.6
2016-Nov-16 16:32N 38°07' W 011°23'62 8.9
2016-Nov-16 09:33N 39°09' W 011°12'9 9.0
2016-Nov-16 08:33N 39°18' W 011°11'  
Track history (hours):
 
Tides and Currents Weather Stations Pressure Air Temp Water Temp Dewpoint Dewpoint Depression Visibility Wind Speed Wind Dir Waves Ship Positions

Lehmann Sound

Last reported at 2016-Nov-24 02:24 UTC. Time now 2016-Dec-04 06:13 UTC.
Position N 28°44' W 015°41'.
Warning: this ship's position is 10 days out of date.

Length 90 m; draft 5.7 m.

Type: Cargo ship. MMSI: 305476000.

Date/timePositionNaut miles runAvg speedWind from/ knotsBaromVisibWave heightAir tempDewpointWater temp
2016-Nov-24 02:24N 28°44' W 015°41'9 7.9
2016-Nov-24 01:15N 28°39' W 015°50'6 7.9
2016-Nov-24 00:28N 28°36' W 015°56'18 1.5
2016-Nov-23 12:30N 28°28' W 016°15'0 0.0
2016-Nov-23 11:27N 28°28' W 016°15'0 0.0
2016-Nov-23 10:30N 28°28' W 016°15'0 0.0
2016-Nov-23 08:30N 28°28' W 016°15'0 0.0
2016-Nov-23 00:17N 28°28' W 016°15'0 0.0
2016-Nov-22 17:05N 28°28' W 016°15'0 0.0
2016-Nov-22 15:08N 28°28' W 016°15'0 0.0
2016-Nov-22 13:29N 28°28' W 016°15'0 0.0
2016-Nov-22 10:26N 28°28' W 016°15'0 0.0
2016-Nov-22 09:29N 28°28' W 016°15'0 0.0
2016-Nov-22 07:33N 28°28' W 016°15'8 4.1
2016-Nov-22 05:33N 28°26' W 016°06'8 8.3
2016-Nov-22 04:33N 28°23' W 015°57'8 8.4
2016-Nov-22 03:33N 28°19' W 015°49'9 8.8
2016-Nov-22 02:33N 28°16' W 015°39'15 4.9
2016-Nov-21 23:33N 28°09' W 015°25'0 0.0
2016-Nov-21 21:33N 28°09' W 015°25'0 0.0
2016-Nov-21 17:33N 28°09' W 015°25'0 0.0
2016-Nov-21 14:30N 28°09' W 015°25'0 0.0
2016-Nov-21 13:33N 28°09' W 015°25'0 0.0
2016-Nov-21 12:33N 28°09' W 015°25'0 0.0
2016-Nov-21 11:33N 28°09' W 015°25'0 0.0
2016-Nov-21 10:33N 28°09' W 015°25'0 0.0
2016-Nov-21 08:33N 28°09' W 015°25'0 0.0
2016-Nov-21 07:33N 28°09' W 015°25'0 0.0
2016-Nov-21 05:33N 28°09' W 015°25'0 0.0
2016-Nov-21 04:33N 28°09' W 015°25'0 0.0
2016-Nov-21 02:33N 28°09' W 015°25'0 0.0
2016-Nov-21 00:33N 28°09' W 015°25'0 0.0
2016-Nov-20 22:33N 28°09' W 015°25'0 0.0
2016-Nov-20 21:33N 28°09' W 015°25'0 0.0
2016-Nov-20 17:33N 28°09' W 015°25'0 0.0
2016-Nov-20 16:33N 28°09' W 015°25'2 1.1
2016-Nov-20 14:31N 28°06' W 015°24'0 0.0
2016-Nov-20 13:31N 28°06' W 015°24'0 0.0
2016-Nov-20 12:31N 28°06' W 015°24'0 0.0
2016-Nov-20 09:31N 28°06' W 015°24'0 0.0
2016-Nov-20 08:31N 28°06' W 015°24'0 0.0
2016-Nov-20 07:31N 28°06' W 015°24'0 0.0
2016-Nov-20 06:31N 28°06' W 015°24'0 0.0
2016-Nov-20 05:31N 28°06' W 015°24'0 0.0
2016-Nov-20 04:31N 28°06' W 015°24'0 0.0
2016-Nov-20 03:31N 28°06' W 015°24'0 0.0
2016-Nov-20 01:31N 28°06' W 015°24'0 0.0
2016-Nov-19 23:31N 28°06' W 015°24'0 0.0
2016-Nov-19 22:31N 28°06' W 015°24'0 0.0
2016-Nov-19 20:31N 28°06' W 015°24'0 0.0
2016-Nov-19 19:31N 28°06' W 015°24'0 0.0
2016-Nov-19 17:31N 28°06' W 015°24'0 0.0
2016-Nov-19 16:31N 28°06' W 015°24'8 3.9
2016-Nov-19 14:33N 28°08' W 015°16'  
2016-Nov-17 08:23N 35°47' W 011°50'16 8.8
2016-Nov-17 06:33N 36°03' W 011°48'36 8.7
2016-Nov-17 02:22N 36°39' W 011°41'27 9.3
2016-Nov-16 23:29N 37°05' W 011°34'9 9.4
2016-Nov-16 22:34N 37°14' W 011°33'30 9.1
2016-Nov-16 19:12N 37°44' W 011°28'15 8.9
2016-Nov-16 17:30N 37°59' W 011°25'8 8.6
2016-Nov-16 16:32N 38°07' W 011°23'62 8.9
2016-Nov-16 09:33N 39°09' W 011°12'9 9.0
2016-Nov-16 08:33N 39°18' W 011°11'  

Dump ship's entire track history